SHT22 EGLL-EGJB
Flight info
| Callsign | SHT22 |
|---|---|
| Flight time | 0h 34m |
| Altitude | 21000 |
| Route | GASGU2J GASGU N866 SAM/N0383F200 N63 LELNA LELNA1V |
| Aircraft | A319/M-SDE2E3FGHIJ1RWXY/S |
Departure
| Time | 2026-04-23 22:15 |
|---|---|
| Airport | London Heathrow Airport (EGLL) |
Arrival
| Time | 2026-04-23 22:50 |
|---|---|
| Airport | Guernsey Airport (EGJB) |
| Time | Latitude | Longitude | Altitude | Speed | Heading |
|---|---|---|---|---|---|
| 2026-04-23 22:07 | 51.47403 | -0.48891 | 86 ft | 0 kts | 179° |
| 2026-04-23 22:10 | 51.47415 | -0.48891 | 90 ft | 3 kts | 179° |
| 2026-04-23 22:10 | 51.47433 | -0.48892 | 88 ft | 3 kts | 179° |
| 2026-04-23 22:10 | 51.47452 | -0.48892 | 87 ft | 3 kts | 179° |
| 2026-04-23 22:10 | 51.47469 | -0.48892 | 86 ft | 2 kts | 154° |
| 2026-04-23 22:11 | 51.47483 | -0.48904 | 86 ft | 2 kts | 113° |
| 2026-04-23 22:11 | 51.47485 | -0.48912 | 91 ft | 0 kts | 96° |
| 2026-04-23 22:11 | 51.47486 | -0.48871 | 88 ft | 7 kts | 88° |
| 2026-04-23 22:11 | 51.47487 | -0.48781 | 86 ft | 10 kts | 89° |
| 2026-04-23 22:12 | 51.47488 | -0.48625 | 89 ft | 18 kts | 89° |
| 2026-04-23 22:12 | 51.47484 | -0.48391 | 88 ft | 18 kts | 116° |
| 2026-04-23 22:12 | 51.47355 | -0.48358 | 86 ft | 21 kts | 178° |
| 2026-04-23 22:12 | 51.47195 | -0.48355 | 89 ft | 24 kts | 182° |
| 2026-04-23 22:13 | 51.47016 | -0.48357 | 87 ft | 27 kts | 179° |
| 2026-04-23 22:13 | 51.46842 | -0.48355 | 86 ft | 20 kts | 179° |
| 2026-04-23 22:13 | 51.46743 | -0.48279 | 86 ft | 17 kts | 100° |
| 2026-04-23 22:13 | 51.46642 | -0.48214 | 86 ft | 19 kts | 181° |
| 2026-04-23 22:14 | 51.46516 | -0.48214 | 88 ft | 13 kts | 180° |
| 2026-04-23 22:14 | 51.46478 | -0.48150 | 89 ft | 10 kts | 92° |
| 2026-04-23 22:14 | 51.46478 | -0.48137 | 88 ft | 0 kts | 88° |
| 2026-04-23 22:14 | 51.46479 | -0.48081 | 87 ft | 17 kts | 88° |
| 2026-04-23 22:15 | 51.46483 | -0.47559 | 85 ft | 77 kts | 89° |
| 2026-04-23 22:15 | 51.46486 | -0.46395 | 89 ft | 130 kts | 90° |
| 2026-04-23 22:15 | 51.46493 | -0.44728 | 310 ft | 159 kts | 90° |
| 2026-04-23 22:15 | 51.46490 | -0.42913 | 923 ft | 164 kts | 89° |
| 2026-04-23 22:16 | 51.46277 | -0.41103 | 1620 ft | 176 kts | 112° |
| 2026-04-23 22:16 | 51.45571 | -0.39350 | 2100 ft | 200 kts | 120° |
| 2026-04-23 22:16 | 51.44754 | -0.37479 | 2853 ft | 207 kts | 123° |
| 2026-04-23 22:16 | 51.43928 | -0.35625 | 3899 ft | 209 kts | 125° |
| 2026-04-23 22:17 | 51.42874 | -0.33974 | 4823 ft | 217 kts | 143° |
| 2026-04-23 22:17 | 51.41473 | -0.32952 | 5629 ft | 229 kts | 162° |
| 2026-04-23 22:17 | 51.39774 | -0.32788 | 5911 ft | 262 kts | 186° |
| 2026-04-23 22:17 | 51.38041 | -0.33920 | 6734 ft | 278 kts | 210° |
| 2026-04-23 22:18 | 51.36549 | -0.35970 | 7656 ft | 284 kts | 218° |
| 2026-04-23 22:18 | 51.35077 | -0.38111 | 8596 ft | 288 kts | 219° |
| 2026-04-23 22:18 | 51.33583 | -0.40282 | 9472 ft | 292 kts | 220° |
| 2026-04-23 22:18 | 51.32057 | -0.42493 | 10324 ft | 299 kts | 220° |
| 2026-04-23 22:19 | 51.30685 | -0.45045 | 11094 ft | 308 kts | 237° |
| 2026-04-23 22:19 | 51.29832 | -0.48221 | 11808 ft | 319 kts | 253° |
| 2026-04-23 22:19 | 51.29198 | -0.51757 | 12071 ft | 343 kts | 253° |
| 2026-04-23 22:19 | 51.28532 | -0.55520 | 12465 ft | 359 kts | 253° |
| 2026-04-23 22:20 | 51.27841 | -0.59394 | 13155 ft | 365 kts | 253° |
| 2026-04-23 22:20 | 51.27109 | -0.63306 | 13882 ft | 370 kts | 252° |
| 2026-04-23 22:20 | 51.26343 | -0.67247 | 14570 ft | 374 kts | 252° |
| 2026-04-23 22:20 | 51.25552 | -0.71228 | 15244 ft | 377 kts | 252° |
| 2026-04-23 22:21 | 51.24751 | -0.75243 | 15921 ft | 381 kts | 252° |
| 2026-04-23 22:21 | 51.23946 | -0.79289 | 16600 ft | 384 kts | 252° |
| 2026-04-23 22:21 | 51.23139 | -0.83366 | 17273 ft | 387 kts | 252° |
| 2026-04-23 22:21 | 51.22337 | -0.87432 | 17935 ft | 391 kts | 252° |
| 2026-04-23 22:22 | 51.21492 | -0.91567 | 18604 ft | 394 kts | 248° |
| 2026-04-23 22:22 | 51.20284 | -0.95502 | 19186 ft | 396 kts | 237° |
| 2026-04-23 22:22 | 51.18650 | -0.99037 | 19757 ft | 398 kts | 226° |
| 2026-04-23 22:22 | 51.16678 | -1.02148 | 20367 ft | 400 kts | 221° |
| 2026-04-23 22:23 | 51.14663 | -1.05223 | 20948 ft | 403 kts | 222° |
| 2026-04-23 22:23 | 51.12634 | -1.08337 | 21543 ft | 406 kts | 222° |
| 2026-04-23 22:23 | 51.10594 | -1.11475 | 22134 ft | 409 kts | 222° |
| 2026-04-23 22:23 | 51.08541 | -1.14634 | 22326 ft | 411 kts | 222° |
| 2026-04-23 22:24 | 51.06496 | -1.17778 | 22373 ft | 407 kts | 222° |
| 2026-04-23 22:24 | 51.04464 | -1.20892 | 22366 ft | 404 kts | 223° |
| 2026-04-23 22:24 | 51.02436 | -1.23990 | 22360 ft | 404 kts | 222° |
| 2026-04-23 22:24 | 51.00404 | -1.27084 | 22352 ft | 404 kts | 222° |
| 2026-04-23 22:25 | 50.98371 | -1.30174 | 22352 ft | 403 kts | 222° |
| 2026-04-23 22:25 | 50.96336 | -1.33155 | 22359 ft | 402 kts | 217° |
| 2026-04-23 22:25 | 50.94033 | -1.35671 | 22351 ft | 400 kts | 208° |
| 2026-04-23 22:25 | 50.91557 | -1.37673 | 22351 ft | 399 kts | 205° |
| 2026-04-23 22:26 | 50.89070 | -1.39645 | 22349 ft | 400 kts | 204° |
| 2026-04-23 22:26 | 50.86590 | -1.41626 | 22357 ft | 400 kts | 205° |
| 2026-04-23 22:26 | 50.84109 | -1.43611 | 22367 ft | 400 kts | 205° |
| 2026-04-23 22:26 | 50.81627 | -1.45597 | 22366 ft | 399 kts | 204° |
| 2026-04-23 22:27 | 50.79146 | -1.47574 | 22370 ft | 400 kts | 204° |
| 2026-04-23 22:27 | 50.76660 | -1.49549 | 22372 ft | 399 kts | 205° |
| 2026-04-23 22:27 | 50.74176 | -1.51520 | 22366 ft | 399 kts | 205° |
| 2026-04-23 22:27 | 50.71696 | -1.53488 | 22366 ft | 399 kts | 204° |
| 2026-04-23 22:28 | 50.69214 | -1.55450 | 22368 ft | 399 kts | 205° |
| 2026-04-23 22:28 | 50.66732 | -1.57407 | 22370 ft | 399 kts | 205° |
| 2026-04-23 22:28 | 50.64254 | -1.59359 | 22367 ft | 398 kts | 204° |
| 2026-04-23 22:28 | 50.61797 | -1.61296 | 22385 ft | 402 kts | 204° |
| 2026-04-23 22:29 | 50.59292 | -1.63272 | 22381 ft | 403 kts | 205° |
| 2026-04-23 22:29 | 50.56794 | -1.65242 | 22372 ft | 402 kts | 204° |
| 2026-04-23 22:29 | 50.54289 | -1.67216 | 22371 ft | 403 kts | 204° |
| 2026-04-23 22:29 | 50.51775 | -1.69190 | 22374 ft | 403 kts | 205° |
| 2026-04-23 22:30 | 50.49263 | -1.71155 | 22372 ft | 401 kts | 205° |
| 2026-04-23 22:30 | 50.46761 | -1.73108 | 22367 ft | 401 kts | 204° |
| 2026-04-23 22:30 | 50.44259 | -1.75060 | 22370 ft | 401 kts | 205° |
| 2026-04-23 22:30 | 50.41759 | -1.77012 | 22373 ft | 401 kts | 205° |
| 2026-04-23 22:31 | 50.39258 | -1.78967 | 22363 ft | 402 kts | 205° |
| 2026-04-23 22:31 | 50.36777 | -1.80900 | 22359 ft | 405 kts | 204° |
| 2026-04-23 22:31 | 50.34255 | -1.82864 | 22362 ft | 404 kts | 205° |
| 2026-04-23 22:31 | 50.31738 | -1.84825 | 22349 ft | 405 kts | 206° |
| 2026-04-23 22:32 | 50.29200 | -1.86794 | 22352 ft | 410 kts | 206° |
| 2026-04-23 22:32 | 50.26647 | -1.88774 | 22288 ft | 408 kts | 206° |
| 2026-04-23 22:32 | 50.24126 | -1.90731 | 22019 ft | 401 kts | 206° |
| 2026-04-23 22:32 | 50.21630 | -1.92668 | 21760 ft | 400 kts | 206° |
| 2026-04-23 22:33 | 50.19132 | -1.94599 | 20912 ft | 406 kts | 205° |
| 2026-04-23 22:33 | 50.16564 | -1.96577 | 20005 ft | 414 kts | 205° |
| 2026-04-23 22:33 | 50.13996 | -1.98551 | 19587 ft | 407 kts | 204° |
| 2026-04-23 22:33 | 50.11467 | -2.00496 | 19062 ft | 403 kts | 204° |
| 2026-04-23 22:34 | 50.08970 | -2.02417 | 18586 ft | 397 kts | 203° |
| 2026-04-23 22:34 | 50.06505 | -2.04315 | 18012 ft | 393 kts | 204° |
| 2026-04-23 22:34 | 50.04067 | -2.06188 | 17373 ft | 389 kts | 202° |
| 2026-04-23 22:34 | 50.01648 | -2.08043 | 16778 ft | 385 kts | 204° |
| 2026-04-23 22:35 | 49.99283 | -2.09945 | 16204 ft | 383 kts | 207° |
| 2026-04-23 22:35 | 49.97166 | -2.12464 | 15596 ft | 384 kts | 220° |
| 2026-04-23 22:35 | 49.95321 | -2.15457 | 14990 ft | 382 kts | 224° |
| 2026-04-23 22:35 | 49.93504 | -2.18450 | 14433 ft | 378 kts | 224° |
| 2026-04-23 22:36 | 49.91708 | -2.21405 | 13825 ft | 375 kts | 223° |
| 2026-04-23 22:36 | 49.89925 | -2.24334 | 13181 ft | 372 kts | 224° |
| 2026-04-23 22:36 | 49.88162 | -2.27229 | 12594 ft | 367 kts | 223° |
| 2026-04-23 22:36 | 49.86442 | -2.30048 | 12035 ft | 362 kts | 223° |
| 2026-04-23 22:37 | 49.84719 | -2.32866 | 11449 ft | 359 kts | 222° |
| 2026-04-23 22:37 | 49.83008 | -2.35657 | 10889 ft | 355 kts | 221° |
| 2026-04-23 22:37 | 49.81342 | -2.38373 | 10724 ft | 340 kts | 223° |
| 2026-04-23 22:37 | 49.79756 | -2.40966 | 10601 ft | 325 kts | 223° |
| 2026-04-23 22:38 | 49.78234 | -2.43455 | 10481 ft | 312 kts | 221° |
| 2026-04-23 22:38 | 49.76768 | -2.45846 | 10314 ft | 302 kts | 221° |
| 2026-04-23 22:38 | 49.75323 | -2.48190 | 9943 ft | 300 kts | 223° |
| 2026-04-23 22:38 | 49.73884 | -2.50517 | 9557 ft | 298 kts | 222° |
| 2026-04-23 22:39 | 49.72453 | -2.52828 | 9163 ft | 297 kts | 221° |
| 2026-04-23 22:39 | 49.71026 | -2.55136 | 8780 ft | 296 kts | 222° |
| 2026-04-23 22:39 | 49.69610 | -2.57432 | 8412 ft | 294 kts | 222° |
| 2026-04-23 22:39 | 49.68201 | -2.59714 | 8034 ft | 293 kts | 222° |
| 2026-04-23 22:40 | 49.66801 | -2.61980 | 7581 ft | 290 kts | 222° |
| 2026-04-23 22:40 | 49.65410 | -2.64227 | 6986 ft | 289 kts | 222° |
| 2026-04-23 22:40 | 49.62668 | -2.68649 | 6082 ft | 275 kts | 222° |
| 2026-04-23 22:41 | 49.61374 | -2.70742 | 5782 ft | 264 kts | 221° |
| 2026-04-23 22:41 | 49.60129 | -2.72754 | 5484 ft | 254 kts | 221° |
| 2026-04-23 22:41 | 49.58939 | -2.74675 | 5204 ft | 248 kts | 221° |
| 2026-04-23 22:41 | 49.57757 | -2.76578 | 4901 ft | 244 kts | 221° |
| 2026-04-23 22:42 | 49.56593 | -2.78448 | 4593 ft | 239 kts | 220° |
| 2026-04-23 22:42 | 49.55447 | -2.80284 | 4265 ft | 236 kts | 220° |
| 2026-04-23 22:42 | 49.54315 | -2.82096 | 3964 ft | 233 kts | 220° |
| 2026-04-23 22:42 | 49.53198 | -2.83884 | 3639 ft | 230 kts | 219° |
| 2026-04-23 22:43 | 49.52058 | -2.85495 | 3469 ft | 214 kts | 207° |
| 2026-04-23 22:43 | 49.50806 | -2.86529 | 3321 ft | 196 kts | 193° |
| 2026-04-23 22:43 | 49.49564 | -2.87028 | 3222 ft | 176 kts | 181° |
| 2026-04-23 22:43 | 49.48381 | -2.87095 | 2949 ft | 166 kts | 169° |
| 2026-04-23 22:44 | 49.47249 | -2.87013 | 2694 ft | 160 kts | 169° |
| 2026-04-23 22:44 | 49.46144 | -2.86941 | 2439 ft | 158 kts | 169° |
| 2026-04-23 22:44 | 49.45050 | -2.86866 | 2186 ft | 157 kts | 168° |
| 2026-04-23 22:44 | 49.43980 | -2.86684 | 2061 ft | 150 kts | 154° |
| 2026-04-23 22:45 | 49.43172 | -2.85773 | 2035 ft | 144 kts | 126° |
| 2026-04-23 22:45 | 49.42865 | -2.84333 | 2038 ft | 149 kts | 92° |
| 2026-04-23 22:45 | 49.42934 | -2.82750 | 2036 ft | 147 kts | 96° |
| 2026-04-23 22:45 | 49.42933 | -2.81229 | 2012 ft | 141 kts | 94° |
| 2026-04-23 22:46 | 49.42955 | -2.79739 | 2013 ft | 138 kts | 94° |
| 2026-04-23 22:46 | 49.42988 | -2.78266 | 2013 ft | 137 kts | 93° |
| 2026-04-23 22:46 | 49.43026 | -2.76809 | 2021 ft | 133 kts | 93° |
| 2026-04-23 22:46 | 49.43064 | -2.75446 | 1991 ft | 124 kts | 94° |
| 2026-04-23 22:47 | 49.43101 | -2.74138 | 1897 ft | 121 kts | 94° |
| 2026-04-23 22:47 | 49.43137 | -2.72860 | 1758 ft | 119 kts | 94° |
| 2026-04-23 22:47 | 49.43173 | -2.71598 | 1620 ft | 118 kts | 94° |
| 2026-04-23 22:47 | 49.43209 | -2.70335 | 1463 ft | 118 kts | 93° |
| 2026-04-23 22:48 | 49.43245 | -2.69082 | 1312 ft | 117 kts | 92° |
| 2026-04-23 22:48 | 49.43281 | -2.67823 | 1152 ft | 118 kts | 90° |
| 2026-04-23 22:48 | 49.43317 | -2.66535 | 995 ft | 120 kts | 88° |
| 2026-04-23 22:48 | 49.43353 | -2.65270 | 819 ft | 114 kts | 86° |
| 2026-04-23 22:49 | 49.43387 | -2.64043 | 654 ft | 115 kts | 86° |
| 2026-04-23 22:49 | 49.43424 | -2.62811 | 535 ft | 116 kts | 85° |
| 2026-04-23 22:49 | 49.43461 | -2.61561 | 369 ft | 117 kts | 86° |
| 2026-04-23 22:49 | 49.43497 | -2.60377 | 312 ft | 98 kts | 87° |
| 2026-04-23 22:50 | 49.43510 | -2.59786 | 326 ft | 28 kts | 88° |
| 2026-04-23 22:50 | 49.43518 | -2.59465 | 334 ft | 28 kts | 88° |
| 2026-04-23 22:50 | 49.43522 | -2.59250 | 334 ft | 14 kts | 97° |
| 2026-04-23 22:50 | 49.43425 | -2.59195 | 333 ft | 18 kts | 184° |
| 2026-04-23 22:51 | 49.43369 | -2.59308 | 334 ft | 12 kts | 263° |
| 2026-04-23 22:51 | 49.43367 | -2.59451 | 331 ft | 15 kts | 269° |
| 2026-04-23 22:51 | 49.43364 | -2.59569 | 329 ft | 17 kts | 266° |
| 2026-04-23 22:51 | 49.43301 | -2.59622 | 329 ft | 11 kts | 178° |
| 2026-04-23 22:52 | 49.43256 | -2.59621 | 328 ft | 0 kts | 178° |
| 2026-04-23 22:52 | 49.43253 | -2.59621 | 328 ft | 0 kts | 178° |